Egmond aan Zee, Netherlands
Current Conditions -  °F | °C
As of 10:25 AM on Monday 20 Oct 2014 (Local Time) from EHKD Reporting Station
Overcast Overcast  
Wind Chill: 59°   Ceiling: 1800
Heat Index: 59°   Visibility: 6mi
Dew Point: 54°   Wind: 14mph
Humidity: 82%   Direction: 290°WNW
Pressure: 29.94"   Gusts: NA
Location:  52.62°N, 4.63°E
Report Text: EHKD 200825Z AUTO 29012KT 9999 BKN018 OVC021 15/12 Q1014 WHT 27020KT 9999 SCT018 BKN028
Loading
Personal Weather Stations






























Interactive Weather Map
Tropical Storm Tracking
New forecast layout! Learn more

10-Day Weather Forecast

Advertisements
Track Severe Weather on mobile